sensor_id;sensor_type;location;lat;lon;timestamp;pressure;altitude;pressure_sealevel;temperature;humidity
44734;BME280;30462;52.446;-1.930;2023-04-01T00:00:19;98595.55859;;;;
44734;BME280;30462;52.446;-1.930;2023-04-01T00:01:18;98599.90625;;;;
44734;BME280;30462;52.446;-1.930;2023-04-01T00:02:18;98601.69531;;;;
44734;BME280;30462;52.446;-1.930;2023-04-01T00:03:18;98600.41797;;;;
44734;BME280;30462;52.446;-1.930;2023-04-01T00:04:17;98601.73828;;;;
44734;BME280;30462;52.446;-1.930;2023-04-01T00:05:17;98602.02344;;;;
44734;BME280;30462;52.446;-1.930;2023-04-01T00:06:18;98603.52344;;;;
44734;BME280;30462;52.446;-1.930;2023-04-01T00:07:18;98603.60156;;;;
44734;BME280;30462;52.446;-1.930;2023-04-01T00:08:18;98604.10156;;;;
44734;BME280;30462;52.446;-1.930;2023-04-01T00:09:18;98606.38281;;;;
44734;BME280;30462;52.446;-1.930;2023-04-01T00:10:18;98604.95703;;;;
44734;BME280;30462;52.446;-1.930;2023-04-01T00:11:18;98606.6875;;;;
44734;BME280;30462;52.446;-1.930;2023-04-01T00:12:18;98608.33594;;;;
44734;BME280;30462;52.446;-1.930;2023-04-01T00:13:18;98610.32031;;;;
44734;BME280;30462;52.446;-1.930;2023-04-01T00:14:17;98613.00391;;;;
44734;BME280;30462;52.446;-1.930;2023-04-01T00:15:18;98610.09766;;;;
44734;BME280;30462;52.446;-1.930;2023-04-01T00:16:18;98608.74219;;;;
44734;BME280;30462;52.446;-1.930;2023-04-01T00:17:18;98612.07813;;;;
44734;BME280;30462;52.446;-1.930;2023-04-01T00:18:18;98612.55859;;;;
44734;BME280;30462;52.446;-1.930;2023-04-01T00:19:18;98614.86328;;;;
44734;BME280;30462;52.446;-1.930;2023-04-01T00:20:18;98614;;;;
44734;BME280;30462;52.446;-1.930;2023-04-01T00:21:19;98616.78125;;;;
44734;BME280;30462;52.446;-1.930;2023-04-01T00:22:18;98616.72266;;;;
44734;BME280;30462;52.446;-1.930;2023-04-01T00:23:18;98618.23828;;;;
44734;BME280;30462;52.446;-1.930;2023-04-01T00:24:18;98621.60156;;;;
44734;BME280;30462;52.446;-1.930;2023-04-01T00:25:18;98622.625;;;;
44734;BME280;30462;52.446;-1.930;2023-04-01T00:26:18;98621.04688;;;;
44734;BME280;30462;52.446;-1.930;2023-04-01T00:27:18;98620.15234;;;;
44734;BME280;30462;52.446;-1.930;2023-04-01T00:28:18;98621.75391;;;;
44734;BME280;30462;52.446;-1.930;2023-04-01T00:29:18;98623.54688;;;;
44734;BME280;30462;52.446;-1.930;2023-04-01T00:30:18;98621.83203;;;;
44734;BME280;30462;52.446;-1.930;2023-04-01T00:31:18;98623.78125;;;;
44734;BME280;30462;52.446;-1.930;2023-04-01T00:32:18;98624.21875;;;;
44734;BME280;30462;52.446;-1.930;2023-04-01T00:33:18;98621.15234;;;;
44734;BME280;30462;52.446;-1.930;2023-04-01T00:34:18;98625.15234;;;;
44734;BME280;30462;52.446;-1.930;2023-04-01T00:35:18;98625.80078;;;;
44734;BME280;30462;52.446;-1.930;2023-04-01T00:36:18;98624.26172;;;;
44734;BME280;30462;52.446;-1.930;2023-04-01T00:37:18;98625.89844;;;;
44734;BME280;30462;52.446;-1.930;2023-04-01T00:38:18;98628.17969;;;;
44734;BME280;30462;52.446;-1.930;2023-04-01T00:39:18;98626.78516;;;;
44734;BME280;30462;52.446;-1.930;2023-04-01T00:41:19;98631.38281;;;;
44734;BME280;30462;52.446;-1.930;2023-04-01T00:42:18;98638.20703;;;;
44734;BME280;30462;52.446;-1.930;2023-04-01T00:43:19;98635.12891;;;;
44734;BME280;30462;52.446;-1.930;2023-04-01T00:44:18;98635.99609;;;;
44734;BME280;30462;52.446;-1.930;2023-04-01T00:46:18;98634.96094;;;;
44734;BME280;30462;52.446;-1.930;2023-04-01T00:47:18;98637.85938;;;;
44734;BME280;30462;52.446;-1.930;2023-04-01T00:48:19;98636.5;;;;
44734;BME280;30462;52.446;-1.930;2023-04-01T00:49:19;98638.46484;;;;
44734;BME280;30462;52.446;-1.930;2023-04-01T00:50:17;98639.99609;;;;
44734;BME280;30462;52.446;-1.930;2023-04-01T00:51:18;98637.58984;;;;
44734;BME280;30462;52.446;-1.930;2023-04-01T00:52:19;98640.96484;;;;
44734;BME280;30462;52.446;-1.930;2023-04-01T00:53:18;98641.27734;;;;
44734;BME280;30462;52.446;-1.930;2023-04-01T00:54:18;98642.54297;;;;
44734;BME280;30462;52.446;-1.930;2023-04-01T00:55:18;98644.14453;;;;
44734;BME280;30462;52.446;-1.930;2023-04-01T00:56:19;98642.97656;;;;
44734;BME280;30462;52.446;-1.930;2023-04-01T00:57:18;98646.52344;;;;
44734;BME280;30462;52.446;-1.930;2023-04-01T00:58:18;98648.26953;;;;
44734;BME280;30462;52.446;-1.930;2023-04-01T00:59:20;98649.32422;;;;
44734;BME280;30462;52.446;-1.930;2023-04-01T01:00:18;98650.26953;;;;
44734;BME280;30462;52.446;-1.930;2023-04-01T01:01:18;98649.22266;;;;
44734;BME280;30462;52.446;-1.930;2023-04-01T01:02:19;98650.52734;;;;
44734;BME280;30462;52.446;-1.930;2023-04-01T01:03:18;98653.21875;;;;
44734;BME280;30462;52.446;-1.930;2023-04-01T01:05:19;98654.40625;;;;
44734;BME280;30462;52.446;-1.930;2023-04-01T01:07:20;98656.44141;;;;
44734;BME280;30462;52.446;-1.930;2023-04-01T01:08:23;98653.38281;;;;
44734;BME280;30462;52.446;-1.930;2023-04-01T01:10:19;98661.04297;;;;
44734;BME280;30462;52.446;-1.930;2023-04-01T01:11:19;98656.86328;;;;
44734;BME280;30462;52.446;-1.930;2023-04-01T01:12:18;98657.21484;;;;
44734;BME280;30462;52.446;-1.930;2023-04-01T01:13:20;98655.8125;;;;
44734;BME280;30462;52.446;-1.930;2023-04-01T01:15:19;98662.11328;;;;
44734;BME280;30462;52.446;-1.930;2023-04-01T01:16:20;98659.35938;;;;
44734;BME280;30462;52.446;-1.930;2023-04-01T01:17:23;98661.28125;;;;
44734;BME280;30462;52.446;-1.930;2023-04-01T01:18:19;98663.97266;;;;
44734;BME280;30462;52.446;-1.930;2023-04-01T01:27:18;98665.98438;;;;
44734;BME280;30462;52.446;-1.930;2023-04-01T01:31:21;98670.26953;;;;
44734;BME280;30462;52.446;-1.930;2023-04-01T01:34:21;98672.90234;;;;
44734;BME280;30462;52.446;-1.930;2023-04-01T01:35:21;98675.01172;;;;
44734;BME280;30462;52.446;-1.930;2023-04-01T01:36:18;98674.625;;;;
44734;BME280;30462;52.446;-1.930;2023-04-01T01:37:18;98679.44922;;;;
44734;BME280;30462;52.446;-1.930;2023-04-01T01:38:19;98680.21875;;;;
44734;BME280;30462;52.446;-1.930;2023-04-01T01:39:18;98677.71484;;;;
44734;BME280;30462;52.446;-1.930;2023-04-01T01:40:18;98677.75;;;;
44734;BME280;30462;52.446;-1.930;2023-04-01T01:41:18;98681.20313;;;;
44734;BME280;30462;52.446;-1.930;2023-04-01T01:42:18;98682.12891;;;;
44734;BME280;30462;52.446;-1.930;2023-04-01T01:43:19;98680.79688;;;;
44734;BME280;30462;52.446;-1.930;2023-04-01T01:44:18;98683.80469;;;;
44734;BME280;30462;52.446;-1.930;2023-04-01T01:45:18;98683.73438;;;;
44734;BME280;30462;52.446;-1.930;2023-04-01T01:46:18;98686.54297;;;;
44734;BME280;30462;52.446;-1.930;2023-04-01T01:47:18;98682.17969;;;;
44734;BME280;30462;52.446;-1.930;2023-04-01T01:48:18;98686.27344;;;;
44734;BME280;30462;52.446;-1.930;2023-04-01T01:49:18;98687.44531;;;;
44734;BME280;30462;52.446;-1.930;2023-04-01T01:50:18;98687.58594;;;;
44734;BME280;30462;52.446;-1.930;2023-04-01T01:51:18;98688.50781;;;;
44734;BME280;30462;52.446;-1.930;2023-04-01T01:52:18;98688.5;;;;
44734;BME280;30462;52.446;-1.930;2023-04-01T01:53:18;98687.03516;;;;
44734;BME280;30462;52.446;-1.930;2023-04-01T01:54:18;98689.77344;;;;
44734;BME280;30462;52.446;-1.930;2023-04-01T01:56:18;98695.38281;;;;
44734;BME280;30462;52.446;-1.930;2023-04-01T01:57:20;98696.15234;;;;
44734;BME280;30462;52.446;-1.930;2023-04-01T01:58:19;98696.9375;;;;
44734;BME280;30462;52.446;-1.930;2023-04-01T01:59:19;98693.60156;;;;
44734;BME280;30462;52.446;-1.930;2023-04-01T02:00:18;98695.36719;;;;
44734;BME280;30462;52.446;-1.930;2023-04-01T02:01:18;98696.50391;;;;
44734;BME280;30462;52.446;-1.930;2023-04-01T02:02:18;98693.53906;;;;
44734;BME280;30462;52.446;-1.930;2023-04-01T02:03:19;98694.30078;;;;
44734;BME280;30462;52.446;-1.930;2023-04-01T02:04:18;98695.69531;;;;
44734;BME280;30462;52.446;-1.930;2023-04-01T02:05:18;98697.98438;;;;
44734;BME280;30462;52.446;-1.930;2023-04-01T02:06:19;98699.74219;;;;
44734;BME280;30462;52.446;-1.930;2023-04-01T02:07:19;98704.17578;;;;
44734;BME280;30462;52.446;-1.930;2023-04-01T02:08:18;98706.875;;;;
44734;BME280;30462;52.446;-1.930;2023-04-01T02:09:17;98705.07422;;;;
44734;BME280;30462;52.446;-1.930;2023-04-01T02:10:18;98707.23047;;;;
44734;BME280;30462;52.446;-1.930;2023-04-01T02:11:19;98708.83203;;;;
44734;BME280;30462;52.446;-1.930;2023-04-01T02:12:18;98714.23047;;;;
44734;BME280;30462;52.446;-1.930;2023-04-01T02:13:21;98711.32031;;;;
44734;BME280;30462;52.446;-1.930;2023-04-01T02:14:19;98716.01953;;;;
44734;BME280;30462;52.446;-1.930;2023-04-01T02:15:18;98717.91797;;;;
44734;BME280;30462;52.446;-1.930;2023-04-01T02:16:19;98715.92188;;;;
44734;BME280;30462;52.446;-1.930;2023-04-01T02:17:19;98717.16406;;;;
44734;BME280;30462;52.446;-1.930;2023-04-01T02:18:18;98719.37891;;;;
44734;BME280;30462;52.446;-1.930;2023-04-01T02:19:18;98719.11719;;;;
44734;BME280;30462;52.446;-1.930;2023-04-01T02:20:19;98720.33984;;;;
44734;BME280;30462;52.446;-1.930;2023-04-01T02:21:19;98717.73438;;;;
44734;BME280;30462;52.446;-1.930;2023-04-01T02:22:20;98722.96094;;;;
44734;BME280;30462;52.446;-1.930;2023-04-01T02:23:18;98725.00781;;;;
44734;BME280;30462;52.446;-1.930;2023-04-01T02:24:18;98718.05469;;;;
44734;BME280;30462;52.446;-1.930;2023-04-01T02:25:20;98722.26563;;;;
44734;BME280;30462;52.446;-1.930;2023-04-01T02:26:18;98723.01953;;;;
44734;BME280;30462;52.446;-1.930;2023-04-01T02:27:18;98726.3125;;;;
44734;BME280;30462;52.446;-1.930;2023-04-01T02:28:18;98727.65234;;;;
44734;BME280;30462;52.446;-1.930;2023-04-01T02:29:19;98726.78125;;;;
44734;BME280;30462;52.446;-1.930;2023-04-01T02:30:18;98729.03906;;;;
44734;BME280;30462;52.446;-1.930;2023-04-01T02:31:18;98733.10156;;;;
44734;BME280;30462;52.446;-1.930;2023-04-01T02:32:18;98730.85938;;;;
44734;BME280;30462;52.446;-1.930;2023-04-01T02:33:18;98736.85938;;;;
44734;BME280;30462;52.446;-1.930;2023-04-01T02:34:18;98741.88281;;;;
44734;BME280;30462;52.446;-1.930;2023-04-01T02:35:18;98736.25391;;;;
44734;BME280;30462;52.446;-1.930;2023-04-01T02:36:17;98742.10547;;;;
44734;BME280;30462;52.446;-1.930;2023-04-01T02:37:18;98743.42969;;;;
44734;BME280;30462;52.446;-1.930;2023-04-01T02:38:18;98741.83594;;;;
44734;BME280;30462;52.446;-1.930;2023-04-01T02:39:18;98742;;;;
44734;BME280;30462;52.446;-1.930;2023-04-01T02:40:18;98741.39453;;;;
44734;BME280;30462;52.446;-1.930;2023-04-01T02:41:18;98742.05078;;;;
44734;BME280;30462;52.446;-1.930;2023-04-01T02:42:18;98743.98438;;;;
44734;BME280;30462;52.446;-1.930;2023-04-01T02:43:18;98742.17578;;;;
44734;BME280;30462;52.446;-1.930;2023-04-01T02:44:18;98744.63281;;;;
44734;BME280;30462;52.446;-1.930;2023-04-01T02:45:18;98748.76563;;;;
44734;BME280;30462;52.446;-1.930;2023-04-01T02:46:18;98747.73438;;;;
44734;BME280;30462;52.446;-1.930;2023-04-01T02:47:18;98744.25781;;;;
44734;BME280;30462;52.446;-1.930;2023-04-01T02:48:18;98747.94531;;;;
44734;BME280;30462;52.446;-1.930;2023-04-01T02:49:17;98748.02344;;;;
44734;BME280;30462;52.446;-1.930;2023-04-01T02:50:17;98751.08203;;;;
44734;BME280;30462;52.446;-1.930;2023-04-01T02:51:18;98749.94531;;;;
44734;BME280;30462;52.446;-1.930;2023-04-01T02:52:17;98749.6875;;;;
44734;BME280;30462;52.446;-1.930;2023-04-01T02:53:18;98749.29297;;;;
44734;BME280;30462;52.446;-1.930;2023-04-01T02:54:18;98753.94531;;;;
44734;BME280;30462;52.446;-1.930;2023-04-01T02:55:18;98749.80469;;;;
44734;BME280;30462;52.446;-1.930;2023-04-01T02:56:18;98749.49609;;;;
44734;BME280;30462;52.446;-1.930;2023-04-01T02:57:18;98750.44922;;;;
44734;BME280;30462;52.446;-1.930;2023-04-01T02:58:18;98747.77344;;;;
44734;BME280;30462;52.446;-1.930;2023-04-01T02:59:18;98741.89063;;;;
44734;BME280;30462;52.446;-1.930;2023-04-01T03:00:18;98752.64063;;;;
44734;BME280;30462;52.446;-1.930;2023-04-01T03:01:18;98750.95703;;;;
44734;BME280;30462;52.446;-1.930;2023-04-01T03:02:18;98754.22656;;;;
44734;BME280;30462;52.446;-1.930;2023-04-01T03:03:18;98751.58594;;;;
44734;BME280;30462;52.446;-1.930;2023-04-01T03:04:18;98758.75391;;;;
44734;BME280;30462;52.446;-1.930;2023-04-01T03:05:18;98757.55469;;;;
44734;BME280;30462;52.446;-1.930;2023-04-01T03:06:19;98760.92188;;;;
44734;BME280;30462;52.446;-1.930;2023-04-01T03:07:18;98762.41797;;;;
44734;BME280;30462;52.446;-1.930;2023-04-01T03:08:18;98764.37891;;;;
44734;BME280;30462;52.446;-1.930;2023-04-01T03:09:18;98763.33984;;;;
44734;BME280;30462;52.446;-1.930;2023-04-01T03:10:18;98763.60156;;;;
44734;BME280;30462;52.446;-1.930;2023-04-01T03:11:18;98766.34375;;;;
44734;BME280;30462;52.446;-1.930;2023-04-01T03:12:18;98768.08203;;;;
44734;BME280;30462;52.446;-1.930;2023-04-01T03:13:18;98768.78906;;;;
44734;BME280;30462;52.446;-1.930;2023-04-01T03:14:18;98767.875;;;;
44734;BME280;30462;52.446;-1.930;2023-04-01T03:15:18;98764.47656;;;;
44734;BME280;30462;52.446;-1.930;2023-04-01T03:16:18;98769.97266;;;;
44734;BME280;30462;52.446;-1.930;2023-04-01T03:17:18;98770.96094;;;;
44734;BME280;30462;52.446;-1.930;2023-04-01T03:18:17;98772.77344;;;;
44734;BME280;30462;52.446;-1.930;2023-04-01T03:19:18;98773.19922;;;;
44734;BME280;30462;52.446;-1.930;2023-04-01T03:20:18;98774.61328;;;;
44734;BME280;30462;52.446;-1.930;2023-04-01T03:21:19;98783.13281;;;;
44734;BME280;30462;52.446;-1.930;2023-04-01T03:22:18;98780.44531;;;;
44734;BME280;30462;52.446;-1.930;2023-04-01T03:23:18;98785.28125;;;;
44734;BME280;30462;52.446;-1.930;2023-04-01T03:24:17;98782.73438;;;;
44734;BME280;30462;52.446;-1.930;2023-04-01T03:25:18;98781.40234;;;;
44734;BME280;30462;52.446;-1.930;2023-04-01T03:26:18;98784.07813;;;;
44734;BME280;30462;52.446;-1.930;2023-04-01T03:27:18;98787.12891;;;;
44734;BME280;30462;52.446;-1.930;2023-04-01T03:28:18;98785.77344;;;;
44734;BME280;30462;52.446;-1.930;2023-04-01T03:29:18;98788.66016;;;;
44734;BME280;30462;52.446;-1.930;2023-04-01T03:30:17;98790.29688;;;;
44734;BME280;30462;52.446;-1.930;2023-04-01T03:31:18;98786.48438;;;;
44734;BME280;30462;52.446;-1.930;2023-04-01T03:32:18;98793.44141;;;;
44734;BME280;30462;52.446;-1.930;2023-04-01T03:33:18;98795.08203;;;;
44734;BME280;30462;52.446;-1.930;2023-04-01T03:34:18;98793.69531;;;;
44734;BME280;30462;52.446;-1.930;2023-04-01T03:35:18;98795.54297;;;;
44734;BME280;30462;52.446;-1.930;2023-04-01T03:36:18;98799.07422;;;;
44734;BME280;30462;52.446;-1.930;2023-04-01T03:37:18;98797.94141;;;;
44734;BME280;30462;52.446;-1.930;2023-04-01T03:38:18;98799.05859;;;;
44734;BME280;30462;52.446;-1.930;2023-04-01T03:39:18;98802.75;;;;
44734;BME280;30462;52.446;-1.930;2023-04-01T03:40:18;98802.95703;;;;
44734;BME280;30462;52.446;-1.930;2023-04-01T03:41:18;98810.76172;;;;
44734;BME280;30462;52.446;-1.930;2023-04-01T03:42:18;98806.37891;;;;
44734;BME280;30462;52.446;-1.930;2023-04-01T03:43:18;98805.50781;;;;
44734;BME280;30462;52.446;-1.930;2023-04-01T03:44:18;98810.30078;;;;
44734;BME280;30462;52.446;-1.930;2023-04-01T03:45:18;98809.60156;;;;
44734;BME280;30462;52.446;-1.930;2023-04-01T03:46:18;98811.23828;;;;
44734;BME280;30462;52.446;-1.930;2023-04-01T03:47:18;98810.37891;;;;
44734;BME280;30462;52.446;-1.930;2023-04-01T03:48:18;98812.77734;;;;
44734;BME280;30462;52.446;-1.930;2023-04-01T03:49:18;98811.99219;;;;
44734;BME280;30462;52.446;-1.930;2023-04-01T03:50:18;98811.39063;;;;
44734;BME280;30462;52.446;-1.930;2023-04-01T03:51:18;98814.94141;;;;
44734;BME280;30462;52.446;-1.930;2023-04-01T03:52:18;98814.6875;;;;
44734;BME280;30462;52.446;-1.930;2023-04-01T03:53:18;98817.27734;;;;
44734;BME280;30462;52.446;-1.930;2023-04-01T03:54:18;98812.66016;;;;
44734;BME280;30462;52.446;-1.930;2023-04-01T03:55:18;98819.30078;;;;
44734;BME280;30462;52.446;-1.930;2023-04-01T03:56:18;98819.13281;;;;
44734;BME280;30462;52.446;-1.930;2023-04-01T03:57:18;98816.02344;;;;
44734;BME280;30462;52.446;-1.930;2023-04-01T03:58:18;98815.49219;;;;
44734;BME280;30462;52.446;-1.930;2023-04-01T03:59:18;98818.70313;;;;
44734;BME280;30462;52.446;-1.930;2023-04-01T04:00:18;98820.9375;;;;
44734;BME280;30462;52.446;-1.930;2023-04-01T04:01:19;98821.48047;;;;
44734;BME280;30462;52.446;-1.930;2023-04-01T04:02:18;98820.45703;;;;
44734;BME280;30462;52.446;-1.930;2023-04-01T04:03:18;98820.12109;;;;
44734;BME280;30462;52.446;-1.930;2023-04-01T04:04:18;98822.17578;;;;
44734;BME280;30462;52.446;-1.930;2023-04-01T04:05:18;98825.98828;;;;
44734;BME280;30462;52.446;-1.930;2023-04-01T04:06:19;98824.73047;;;;
44734;BME280;30462;52.446;-1.930;2023-04-01T04:07:17;98829.00391;;;;
44734;BME280;30462;52.446;-1.930;2023-04-01T04:08:18;98830.85156;;;;
44734;BME280;30462;52.446;-1.930;2023-04-01T04:09:18;98830.71094;;;;
44734;BME280;30462;52.446;-1.930;2023-04-01T04:10:18;98829.19531;;;;
44734;BME280;30462;52.446;-1.930;2023-04-01T04:11:19;98828.44922;;;;
44734;BME280;30462;52.446;-1.930;2023-04-01T04:12:18;98830.9375;;;;
44734;BME280;30462;52.446;-1.930;2023-04-01T04:13:18;98831.44922;;;;
44734;BME280;30462;52.446;-1.930;2023-04-01T04:14:18;98831.33203;;;;
44734;BME280;30462;52.446;-1.930;2023-04-01T04:15:18;98836.83984;;;;
44734;BME280;30462;52.446;-1.930;2023-04-01T04:16:18;98832.19922;;;;
44734;BME280;30462;52.446;-1.930;2023-04-01T04:17:18;98836.83594;;;;
44734;BME280;30462;52.446;-1.930;2023-04-01T04:18:18;98839.62109;;;;
44734;BME280;30462;52.446;-1.930;2023-04-01T04:19:18;98840.26563;;;;
44734;BME280;30462;52.446;-1.930;2023-04-01T04:20:18;98844.22266;;;;
44734;BME280;30462;52.446;-1.930;2023-04-01T04:21:18;98846.97266;;;;
44734;BME280;30462;52.446;-1.930;2023-04-01T04:22:18;98849.03125;;;;
44734;BME280;30462;52.446;-1.930;2023-04-01T04:23:18;98850.01563;;;;
44734;BME280;30462;52.446;-1.930;2023-04-01T04:24:18;98846.57031;;;;
44734;BME280;30462;52.446;-1.930;2023-04-01T04:25:18;98851.35156;;;;
44734;BME280;30462;52.446;-1.930;2023-04-01T04:26:18;98851.89844;;;;
44734;BME280;30462;52.446;-1.930;2023-04-01T04:27:18;98852.69531;;;;
44734;BME280;30462;52.446;-1.930;2023-04-01T04:28:18;98851.70313;;;;
44734;BME280;30462;52.446;-1.930;2023-04-01T04:29:18;98853.22266;;;;
44734;BME280;30462;52.446;-1.930;2023-04-01T04:30:18;98851.37891;;;;
44734;BME280;30462;52.446;-1.930;2023-04-01T04:31:18;98855.85938;;;;
44734;BME280;30462;52.446;-1.930;2023-04-01T04:32:18;98857.10938;;;;
44734;BME280;30462;52.446;-1.930;2023-04-01T04:33:18;98859.19531;;;;
44734;BME280;30462;52.446;-1.930;2023-04-01T04:34:18;98858.10156;;;;
44734;BME280;30462;52.446;-1.930;2023-04-01T04:35:18;98864.05469;;;;
44734;BME280;30462;52.446;-1.930;2023-04-01T04:36:20;98862.55469;;;;
44734;BME280;30462;52.446;-1.930;2023-04-01T04:37:18;98865.17188;;;;
44734;BME280;30462;52.446;-1.930;2023-04-01T04:38:18;98867.71484;;;;
44734;BME280;30462;52.446;-1.930;2023-04-01T04:39:18;98869.82422;;;;
44734;BME280;30462;52.446;-1.930;2023-04-01T04:40:17;98868.05859;;;;
44734;BME280;30462;52.446;-1.930;2023-04-01T04:41:18;98865.63672;;;;
44734;BME280;30462;52.446;-1.930;2023-04-01T04:42:18;98868.73438;;;;
44734;BME280;30462;52.446;-1.930;2023-04-01T04:43:18;98867.875;;;;
44734;BME280;30462;52.446;-1.930;2023-04-01T04:44:17;98868.30469;;;;
44734;BME280;30462;52.446;-1.930;2023-04-01T04:45:17;98868.04688;;;;
44734;BME280;30462;52.446;-1.930;2023-04-01T04:46:18;98866.54688;;;;
44734;BME280;30462;52.446;-1.930;2023-04-01T04:47:18;98873.23828;;;;
44734;BME280;30462;52.446;-1.930;2023-04-01T04:48:18;98873.49609;;;;
44734;BME280;30462;52.446;-1.930;2023-04-01T04:49:17;98871.36328;;;;
44734;BME280;30462;52.446;-1.930;2023-04-01T04:50:17;98872.78125;;;;
44734;BME280;30462;52.446;-1.930;2023-04-01T04:51:19;98872.61328;;;;
44734;BME280;30462;52.446;-1.930;2023-04-01T04:52:18;98877.57422;;;;
44734;BME280;30462;52.446;-1.930;2023-04-01T04:53:18;98874.76563;;;;
44734;BME280;30462;52.446;-1.930;2023-04-01T04:54:18;98878.0625;;;;
44734;BME280;30462;52.446;-1.930;2023-04-01T04:55:18;98877.65234;;;;
44734;BME280;30462;52.446;-1.930;2023-04-01T04:56:18;98874.53516;;;;
44734;BME280;30462;52.446;-1.930;2023-04-01T04:57:18;98873.78125;;;;
44734;BME280;30462;52.446;-1.930;2023-04-01T04:58:18;98876.37109;;;;
44734;BME280;30462;52.446;-1.930;2023-04-01T04:59:18;98874.52344;;;;
44734;BME280;30462;52.446;-1.930;2023-04-01T05:00:18;98875.96484;;;;
44734;BME280;30462;52.446;-1.930;2023-04-01T05:01:18;98874;;;;
44734;BME280;30462;52.446;-1.930;2023-04-01T05:02:18;98874.43359;;;;
44734;BME280;30462;52.446;-1.930;2023-04-01T05:03:18;98873.89844;;;;
44734;BME280;30462;52.446;-1.930;2023-04-01T05:04:18;98880.75781;;;;
44734;BME280;30462;52.446;-1.930;2023-04-01T05:05:18;98875.42969;;;;
44734;BME280;30462;52.446;-1.930;2023-04-01T05:06:19;98878.48438;;;;
44734;BME280;30462;52.446;-1.930;2023-04-01T05:07:18;98882.625;;;;
44734;BME280;30462;52.446;-1.930;2023-04-01T05:08:18;98882.875;;;;
44734;BME280;30462;52.446;-1.930;2023-04-01T05:09:18;98886.89063;;;;
44734;BME280;30462;52.446;-1.930;2023-04-01T05:10:18;98891.35938;;;;
44734;BME280;30462;52.446;-1.930;2023-04-01T05:11:19;98892.78906;;;;
44734;BME280;30462;52.446;-1.930;2023-04-01T05:12:18;98889.27344;;;;
44734;BME280;30462;52.446;-1.930;2023-04-01T05:13:18;98892.48828;;;;
44734;BME280;30462;52.446;-1.930;2023-04-01T05:14:18;98895.46875;;;;
44734;BME280;30462;52.446;-1.930;2023-04-01T05:15:18;98893.66016;;;;
44734;BME280;30462;52.446;-1.930;2023-04-01T05:16:19;98899.64063;;;;
44734;BME280;30462;52.446;-1.930;2023-04-01T05:17:18;98899.8125;;;;
44734;BME280;30462;52.446;-1.930;2023-04-01T05:18:17;98900.50391;;;;
44734;BME280;30462;52.446;-1.930;2023-04-01T05:19:18;98901.73047;;;;
44734;BME280;30462;52.446;-1.930;2023-04-01T05:20:18;98904.46484;;;;
44734;BME280;30462;52.446;-1.930;2023-04-01T05:21:17;98903.59375;;;;
44734;BME280;30462;52.446;-1.930;2023-04-01T05:22:17;98903.34766;;;;
44734;BME280;30462;52.446;-1.930;2023-04-01T05:23:18;98906.375;;;;
44734;BME280;30462;52.446;-1.930;2023-04-01T05:24:18;98907.20703;;;;
44734;BME280;30462;52.446;-1.930;2023-04-01T05:25:18;98904.83594;;;;
44734;BME280;30462;52.446;-1.930;2023-04-01T05:26:18;98908.9375;;;;
44734;BME280;30462;52.446;-1.930;2023-04-01T05:27:18;98910.33984;;;;
44734;BME280;30462;52.446;-1.930;2023-04-01T05:28:19;98910.58203;;;;
44734;BME280;30462;52.446;-1.930;2023-04-01T05:29:18;98914.44141;;;;
44734;BME280;30462;52.446;-1.930;2023-04-01T05:30:18;98914.5;;;;
44734;BME280;30462;52.446;-1.930;2023-04-01T05:31:18;98915.72266;;;;
44734;BME280;30462;52.446;-1.930;2023-04-01T05:32:18;98916.89844;;;;
44734;BME280;30462;52.446;-1.930;2023-04-01T05:33:18;98917.43359;;;;
44734;BME280;30462;52.446;-1.930;2023-04-01T05:34:18;98918.77734;;;;
44734;BME280;30462;52.446;-1.930;2023-04-01T05:35:18;98920.14453;;;;
44734;BME280;30462;52.446;-1.930;2023-04-01T05:36:18;98918.80469;;;;
44734;BME280;30462;52.446;-1.930;2023-04-01T05:37:18;98922.80469;;;;
44734;BME280;30462;52.446;-1.930;2023-04-01T05:38:18;98923.76172;;;;
44734;BME280;30462;52.446;-1.930;2023-04-01T05:39:18;98927.79297;;;;
44734;BME280;30462;52.446;-1.930;2023-04-01T05:40:18;98929.51563;;;;
44734;BME280;30462;52.446;-1.930;2023-04-01T05:41:18;98932.24219;;;;
44734;BME280;30462;52.446;-1.930;2023-04-01T05:42:18;98932.26953;;;;
44734;BME280;30462;52.446;-1.930;2023-04-01T05:43:18;98934.66016;;;;
44734;BME280;30462;52.446;-1.930;2023-04-01T05:44:18;98939.80859;;;;
44734;BME280;30462;52.446;-1.930;2023-04-01T05:45:18;98936.92188;;;;
44734;BME280;30462;52.446;-1.930;2023-04-01T05:46:18;98936.4375;;;;
44734;BME280;30462;52.446;-1.930;2023-04-01T05:47:18;98940.76563;;;;
44734;BME280;30462;52.446;-1.930;2023-04-01T05:48:18;98939.94922;;;;
44734;BME280;30462;52.446;-1.930;2023-04-01T05:49:18;98944.22656;;;;
44734;BME280;30462;52.446;-1.930;2023-04-01T05:50:18;98943.38281;;;;
44734;BME280;30462;52.446;-1.930;2023-04-01T05:51:18;98944.17578;;;;
44734;BME280;30462;52.446;-1.930;2023-04-01T05:52:18;98946.13281;;;;
44734;BME280;30462;52.446;-1.930;2023-04-01T05:53:18;98947.10938;;;;
44734;BME280;30462;52.446;-1.930;2023-04-01T05:54:18;98950.73047;;;;
44734;BME280;30462;52.446;-1.930;2023-04-01T05:55:18;98946.26563;;;;
44734;BME280;30462;52.446;-1.930;2023-04-01T05:56:18;98952.88281;;;;
44734;BME280;30462;52.446;-1.930;2023-04-01T05:57:18;98951.30859;;;;
44734;BME280;30462;52.446;-1.930;2023-04-01T05:58:18;98951.75;;;;
44734;BME280;30462;52.446;-1.930;2023-04-01T05:59:18;98953.26953;;;;
44734;BME280;30462;52.446;-1.930;2023-04-01T06:00:18;98953.57031;;;;
44734;BME280;30462;52.446;-1.930;2023-04-01T06:01:18;98957.30078;;;;
44734;BME280;30462;52.446;-1.930;2023-04-01T06:02:18;98956.72656;;;;
44734;BME280;30462;52.446;-1.930;2023-04-01T06:03:18;98960.75781;;;;
44734;BME280;30462;52.446;-1.930;2023-04-01T06:04:18;98961.89844;;;;
44734;BME280;30462;52.446;-1.930;2023-04-01T06:05:19;98961.4375;;;;
44734;BME280;30462;52.446;-1.930;2023-04-01T06:06:20;98966.91016;;;;